Time;durP1;ratioP1;P1;durP2;ratioP2;P2;SDS_P1;SDS_P2;PMS_P1;PMS_P2;Temp;Humidity;BMP_temperature;BMP_pressure;BME280_temperature;BME280_humidity;BME280_pressure;Samples;Min_cycle;Max_cycle;Signal;HPM_P1;HPM_P2
2021/05/02 00:00:34;;;;;;;10.63;7.32;;;7.60;99.90;;;;;;5029309;28;20099;-62
2021/05/02 00:03:05;;;;;;;12.80;7.57;;;7.60;99.90;;;;;;5041310;28;20018;-62
2021/05/02 00:05:33;;;;;;;15.65;7.03;;;7.50;99.90;;;;;;5033997;28;20667;-63
2021/05/02 00:07:59;;;;;;;13.45;8.07;;;7.50;99.90;;;;;;5043381;28;20029;-62
2021/05/02 00:10:27;;;;;;;10.52;6.43;;;7.50;99.90;;;;;;5045550;28;20398;-63
2021/05/02 00:12:54;;;;;;;9.82;6.90;;;7.40;99.90;;;;;;5046110;28;20105;-63
2021/05/02 00:15:23;;;;;;;11.73;6.45;;;7.30;99.90;;;;;;5043166;28;20048;-63
2021/05/02 00:17:49;;;;;;;11.73;6.60;;;7.30;99.90;;;;;;5042855;28;20025;-63
2021/05/02 00:20:21;;;;;;;12.95;6.63;;;7.30;99.90;;;;;;5039995;28;20033;-62
2021/05/02 00:22:49;;;;;;;11.65;6.95;;;7.30;99.90;;;;;;5052226;28;20021;-63
2021/05/02 00:25:18;;;;;;;12.82;8.32;;;7.30;99.90;;;;;;5052272;28;20533;-63
2021/05/02 00:27:44;;;;;;;12.60;7.55;;;7.20;99.90;;;;;;5055392;28;20016;-63
2021/05/02 00:30:15;;;;;;;13.93;7.55;;;7.20;99.90;;;;;;5042090;28;20017;-60
2021/05/02 00:32:47;;;;;;;12.65;8.20;;;7.10;99.90;;;;;;5057092;28;20025;-63
2021/05/02 00:35:14;;;;;;;11.98;7.65;;;7.10;99.90;;;;;;5054506;28;20485;-62
2021/05/02 00:37:41;;;;;;;12.32;8.15;;;7.00;99.90;;;;;;5057655;28;20039;-62
2021/05/02 00:40:13;;;;;;;12.75;8.07;;;7.00;99.90;;;;;;5045543;28;20823;-63
2021/05/02 00:42:54;;;;;;;14.23;7.68;;;7.00;99.90;;;;;;5053225;28;20025;-62
2021/05/02 00:45:34;;;;;;;12.57;7.15;;;6.90;99.90;;;;;;5050886;28;20562;-62
2021/05/02 00:48:05;;;;;;;11.32;7.68;;;6.80;99.90;;;;;;5050073;28;20408;-63
2021/05/02 00:50:39;;;;;;;22.63;8.82;;;6.80;99.90;;;;;;5050211;28;20039;-63
2021/05/02 00:53:23;;;;;;;;;;;6.70;99.90;;;;;;5047440;28;20673;-63
2021/05/02 00:55:56;;;;;;;13.15;8.27;;;6.70;99.90;;;;;;5048955;28;19919;-62
2021/05/02 00:58:53;;;;;;;13.95;8.90;;;6.70;99.90;;;;;;5050169;28;20028;-61
2021/05/02 01:01:21;;;;;;;13.52;9.02;;;6.70;99.90;;;;;;5030299;28;20133;-62
2021/05/02 01:03:48;;;;;;;17.30;10.40;;;6.60;99.90;;;;;;5039864;28;20051;-63
2021/05/02 01:06:16;;;;;;;18.90;9.80;;;6.60;99.90;;;;;;5061555;28;20028;-62
2021/05/02 01:08:43;;;;;;;15.30;9.95;;;6.60;99.90;;;;;;5049925;28;20402;-63
2021/05/02 01:11:12;;;;;;;18.13;10.35;;;6.50;99.90;;;;;;5045369;28;20494;-62
2021/05/02 01:13:44;;;;;;;14.23;9.38;;;6.50;99.90;;;;;;5050606;28;20023;-62
2021/05/02 01:16:13;;;;;;;12.32;9.30;;;6.40;99.90;;;;;;5054824;28;20498;-63
2021/05/02 01:18:39;;;;;;;15.70;10.60;;;6.30;99.90;;;;;;5048040;28;20033;-63
2021/05/02 01:21:06;;;;;;;14.45;9.82;;;6.40;99.90;;;;;;5017301;28;20036;-63
2021/05/02 01:23:35;;;;;;;15.88;10.55;;;6.30;99.90;;;;;;5084187;28;20032;-62
2021/05/02 01:26:01;;;;;;;19.92;10.00;;;6.30;99.90;;;;;;5085650;28;20420;-63
2021/05/02 01:28:28;;;;;;;15.27;11.10;;;6.30;99.90;;;;;;5085937;28;20197;-63
2021/05/02 01:30:55;;;;;;;16.83;11.82;;;6.30;99.90;;;;;;5086547;28;20020;-63
2021/05/02 01:33:21;;;;;;;16.48;11.43;;;6.20;99.90;;;;;;5084101;28;20575;-64
2021/05/02 01:35:47;;;;;;;19.58;12.18;;;6.20;99.90;;;;;;5086041;28;20024;-63
2021/05/02 01:38:13;;;;;;;19.15;12.40;;;6.10;99.90;;;;;;5085970;28;20082;-64
2021/05/02 01:40:39;;;;;;;20.52;13.63;;;6.10;99.90;;;;;;5084826;28;20135;-62
2021/05/02 01:43:05;;;;;;;22.10;14.05;;;6.00;99.90;;;;;;5088318;28;20043;-63
2021/05/02 01:45:31;;;;;;;23.95;14.23;;;6.00;99.90;;;;;;5085602;28;20024;-62
2021/05/02 01:48:06;;;;;;;22.58;15.43;;;5.90;99.90;;;;;;5080701;28;20094;-63
2021/05/02 01:50:51;;;;;;;21.40;13.93;;;5.90;99.90;;;;;;5053915;28;20028;-61
2021/05/02 01:53:17;;;;;;;22.88;15.48;;;5.80;99.90;;;;;;5050673;28;20025;-62
2021/05/02 01:55:45;;;;;;;24.05;16.88;;;5.70;99.90;;;;;;5064042;28;20162;-63
2021/05/02 01:58:11;;;;;;;24.73;14.93;;;5.70;99.90;;;;;;5056687;28;20024;-62
2021/05/02 02:00:56;;;;;;;27.08;17.23;;;5.60;99.90;;;;;;5036795;28;20048;-63
2021/05/02 02:03:22;;;;;;;32.50;16.98;;;5.50;99.90;;;;;;5058678;28;20043;-64
2021/05/02 02:05:49;;;;;;;31.35;19.42;;;5.50;99.90;;;;;;5049845;28;20403;-63
2021/05/02 02:08:16;;;;;;;28.52;18.27;;;5.50;99.90;;;;;;5057542;28;20020;-62
2021/05/02 02:10:43;;;;;;;29.30;18.20;;;5.50;99.90;;;;;;5047225;28;20025;-63
2021/05/02 02:13:14;;;;;;;31.95;18.55;;;5.40;99.90;;;;;;5050192;28;20582;-63
2021/05/02 02:15:40;;;;;;;29.50;19.35;;;5.40;99.90;;;;;;5041319;28;20032;-63
2021/05/02 02:18:08;;;;;;;36.53;21.83;;;5.30;99.90;;;;;;5049276;28;20502;-61
2021/05/02 02:20:42;;;;;;;32.83;22.02;;;5.30;99.90;;;;;;5055094;28;20390;-63
2021/05/02 02:23:19;;;;;;;37.72;22.30;;;5.30;99.90;;;;;;5051982;28;20135;-62
2021/05/02 02:25:46;;;;;;;36.92;23.38;;;5.20;99.90;;;;;;5035434;28;20033;-63
2021/05/02 02:28:14;;;;;;;36.13;23.73;;;5.20;99.90;;;;;;5053245;28;20016;-63
2021/05/02 02:30:42;;;;;;;37.35;24.83;;;5.20;99.90;;;;;;5051265;28;20028;-63
2021/05/02 02:33:09;;;;;;;48.35;25.35;;;5.20;99.90;;;;;;5054725;28;20036;-62
2021/05/02 02:35:40;;;;;;;41.15;24.48;;;5.20;99.90;;;;;;5041753;28;20024;-61
2021/05/02 02:38:08;;;;;;;42.70;26.10;;;5.30;99.90;;;;;;5052935;28;20028;-62
2021/05/02 02:40:38;;;;;;;44.70;25.75;;;5.30;99.90;;;;;;5037011;28;20026;-63
2021/05/02 02:43:05;;;;;;;42.75;27.08;;;5.40;99.90;;;;;;5049127;28;20029;-64
2021/05/02 02:45:37;;;;;;;42.63;26.60;;;5.50;99.90;;;;;;5051022;28;20025;-59
2021/05/02 02:48:04;;;;;;;41.53;24.00;;;5.60;99.90;;;;;;5062332;28;20024;-63
2021/05/02 02:50:31;;;;;;;45.95;28.27;;;5.70;99.90;;;;;;5042712;28;20057;-63
2021/05/02 02:53:05;;;;;;;48.55;27.88;;;5.70;99.90;;;;;;5044418;28;20021;-63
2021/05/02 02:55:32;;;;;;;;;;;5.80;99.90;;;;;;5051879;28;20029;-63
2021/05/02 02:58:00;;;;;;;44.90;26.88;;;5.80;99.90;;;;;;5059228;28;20289;-61
2021/05/02 03:00:34;;;;;;;46.97;28.13;;;5.90;99.90;;;;;;5049380;28;20035;-63
2021/05/02 03:03:13;;;;;;;47.10;28.48;;;5.80;99.90;;;;;;5044759;28;20131;-63
2021/05/02 03:05:40;;;;;;;49.85;30.17;;;5.80;99.90;;;;;;5048728;28;20048;-64
2021/05/02 03:08:08;;;;;;;46.80;29.38;;;5.80;99.90;;;;;;5058112;28;20372;-63
2021/05/02 03:10:34;;;;;;;48.55;29.75;;;5.70;99.90;;;;;;5042263;28;20129;-63
2021/05/02 03:13:00;;;;;;;45.53;27.73;;;5.80;99.90;;;;;;5050239;28;20136;-62
2021/05/02 03:15:27;;;;;;;45.65;27.52;;;5.80;99.90;;;;;;5058901;28;20103;-63
2021/05/02 03:18:06;;;;;;;43.22;27.35;;;5.90;99.90;;;;;;5061054;28;20134;-63
2021/05/02 03:20:37;;;;;;;41.65;25.15;;;5.90;99.90;;;;;;5053957;28;20043;-63
2021/05/02 03:23:21;;;;;;;42.72;26.55;;;6.00;99.90;;;;;;5047444;28;20036;-63
2021/05/02 03:25:48;;;;;;;40.38;25.17;;;6.00;99.90;;;;;;5041468;28;20033;-63
2021/05/02 03:28:20;;;;;;;45.03;24.73;;;6.10;99.90;;;;;;5063425;28;20500;-61
2021/05/02 03:30:47;;;;;;;42.58;24.30;;;6.10;99.90;;;;;;5050100;28;20387;-64
2021/05/02 03:33:15;;;;;;;38.85;24.23;;;6.10;99.90;;;;;;5044310;28;20052;-63
2021/05/02 03:35:44;;;;;;;39.20;25.10;;;6.10;99.90;;;;;;5051707;28;20013;-63
2021/05/02 03:38:29;;;;;;;35.97;24.98;;;6.10;99.90;;;;;;5057011;28;20381;-64
2021/05/02 03:40:58;;;;;;;41.53;23.48;;;6.10;99.90;;;;;;5057385;28;20060;-64
2021/05/02 03:43:24;;;;;;;35.65;24.20;;;6.10;99.90;;;;;;5050155;28;20029;-63
2021/05/02 03:45:49;;;;;;;34.80;22.98;;;6.10;99.90;;;;;;5049759;28;20029;-62
2021/05/02 03:48:15;;;;;;;32.58;22.08;;;6.00;99.90;;;;;;5056927;28;20031;-62
2021/05/02 03:50:41;;;;;;;40.30;22.10;;;6.00;99.90;;;;;;5056682;28;20030;-63
2021/05/02 03:53:06;;;;;;;34.10;22.65;;;6.00;99.90;;;;;;5056471;28;20415;-60
2021/05/02 03:55:43;;;;;;;30.00;19.25;;;6.00;99.90;;;;;;5053037;28;20029;-65
2021/05/02 03:58:14;;;;;;;34.92;19.88;;;6.00;99.90;;;;;;5048613;28;20481;-62
2021/05/02 04:00:40;;;;;;;30.17;19.73;;;6.00;99.90;;;;;;5045834;28;20582;-63
2021/05/02 04:03:06;;;;;;;33.22;21.90;;;6.00;99.90;;;;;;5037894;28;20037;-64
2021/05/02 04:05:32;;;;;;;31.83;20.83;;;6.00;99.90;;;;;;5047031;28;20021;-63
2021/05/02 04:07:58;;;;;;;33.67;22.38;;;6.00;99.90;;;;;;5044144;28;20495;-63
2021/05/02 04:10:24;;;;;;;31.60;21.33;;;6.00;99.90;;;;;;5058438;28;20028;-63
2021/05/02 04:12:50;;;;;;;33.05;22.63;;;6.00;99.90;;;;;;5052741;28;20491;-63
2021/05/02 04:15:16;;;;;;;34.63;21.25;;;6.00;99.90;;;;;;5052578;28;20020;-61
2021/05/02 04:17:41;;;;;;;29.75;20.75;;;6.00;99.90;;;;;;5055736;28;20115;-63
2021/05/02 04:20:08;;;;;;;32.10;21.70;;;6.00;99.90;;;;;;5052803;28;20448;-64
2021/05/02 04:22:33;;;;;;;35.92;22.30;;;5.90;99.90;;;;;;5056950;28;20024;-63
2021/05/02 04:24:59;;;;;;;30.95;21.63;;;6.00;99.90;;;;;;5048427;28;20029;-63
2021/05/02 04:27:25;;;;;;;27.40;20.17;;;6.00;99.90;;;;;;5047781;28;20025;-61
2021/05/02 04:29:50;;;;;;;34.90;21.85;;;5.90;99.90;;;;;;5044234;28;20017;-63
2021/05/02 04:32:16;;;;;;;31.00;22.35;;;6.00;99.90;;;;;;5051441;28;20107;-64
2021/05/02 04:34:41;;;;;;;33.60;22.83;;;6.00;99.90;;;;;;5052759;28;20032;-64
2021/05/02 04:37:07;;;;;;;34.42;22.13;;;6.00;99.90;;;;;;5055428;28;20029;-64
2021/05/02 04:39:33;;;;;;;40.90;24.98;;;6.00;99.90;;;;;;5052088;28;20479;-61
2021/05/02 04:41:58;;;;;;;29.90;20.92;;;6.00;99.90;;;;;;5061561;28;20093;-64
2021/05/02 04:44:25;;;;;;;34.78;22.88;;;6.00;99.90;;;;;;5057201;28;20397;-64
2021/05/02 04:46:51;;;;;;;40.25;22.63;;;6.00;99.90;;;;;;5056839;28;20036;-63
2021/05/02 04:49:17;;;;;;;33.10;22.48;;;6.10;99.90;;;;;;5048463;28;20021;-63
2021/05/02 04:51:43;;;;;;;35.63;23.00;;;6.10;99.90;;;;;;5056476;28;20436;-64
2021/05/02 04:54:09;;;;;;;35.33;23.27;;;6.00;99.90;;;;;;5051937;28;20025;-63
2021/05/02 04:56:38;;;;;;;32.90;22.17;;;6.00;99.90;;;;;;5049182;28;20033;-63
2021/05/02 04:59:08;;;;;;;33.58;23.30;;;6.00;99.90;;;;;;5056136;28;20061;-62
2021/05/02 05:01:36;;;;;;;35.75;25.17;;;6.00;99.90;;;;;;5040830;28;20048;-64
2021/05/02 05:04:01;;;;;;;38.47;25.27;;;5.90;99.90;;;;;;5053292;28;20405;-63
2021/05/02 05:06:27;;;;;;;35.80;22.92;;;6.00;99.90;;;;;;5053301;28;20027;-64
2021/05/02 05:08:53;;;;;;;35.17;24.90;;;6.10;99.90;;;;;;5071671;28;20025;-63
2021/05/02 05:11:20;;;;;;;35.33;24.23;;;6.10;99.90;;;;;;5036532;28;20029;-63
2021/05/02 05:13:46;;;;;;;33.88;23.35;;;6.00;99.90;;;;;;5047315;28;20355;-63
2021/05/02 05:16:11;;;;;;;36.38;22.98;;;6.10;99.90;;;;;;5052667;28;20025;-62
2021/05/02 05:18:37;;;;;;;34.10;22.67;;;6.10;99.90;;;;;;5047329;28;20041;-63
2021/05/02 05:21:02;;;;;;;35.35;23.27;;;6.10;99.90;;;;;;5049257;28;20052;-64
2021/05/02 05:23:28;;;;;;;33.13;23.17;;;6.20;99.90;;;;;;5054593;28;20167;-63
2021/05/02 05:25:54;;;;;;;31.67;21.50;;;6.20;99.90;;;;;;5059414;28;20029;-63
2021/05/02 05:28:23;;;;;;;32.70;21.10;;;6.20;99.90;;;;;;5056053;28;20481;-63
2021/05/02 05:30:53;;;;;;;32.63;21.00;;;6.20;99.90;;;;;;5052063;28;20020;-63
2021/05/02 05:33:18;;;;;;;34.97;22.92;;;6.30;99.90;;;;;;5045919;28;20021;-62
2021/05/02 05:35:44;;;;;;;29.88;21.23;;;6.30;99.90;;;;;;5056953;28;20017;-63
2021/05/02 05:38:10;;;;;;;33.50;20.58;;;6.40;99.90;;;;;;5060599;28;20457;-63
2021/05/02 05:40:35;;;;;;;30.27;20.95;;;6.40;99.90;;;;;;5058857;28;20028;-62
2021/05/02 05:43:04;;;;;;;30.40;19.63;;;6.50;99.90;;;;;;5062721;28;20104;-63
2021/05/02 05:45:34;;;;;;;31.17;20.00;;;6.60;99.90;;;;;;5060606;28;20139;-63
2021/05/02 05:48:00;;;;;;;26.13;18.55;;;6.80;99.90;;;;;;5054611;28;20040;-63
2021/05/02 05:50:27;;;;;;;25.50;16.40;;;6.90;99.90;;;;;;5045386;28;20029;-63
2021/05/02 05:52:53;;;;;;;30.42;16.30;;;7.80;99.90;;;;;;5048661;28;20032;-64
2021/05/02 05:55:20;;;;;;;20.85;12.18;;;8.90;99.90;;;;;;5055473;28;20047;-64
2021/05/02 05:57:47;;;;;;;19.20;13.52;;;9.70;99.90;;;;;;5062834;28;20036;-64
2021/05/02 06:00:14;;;;;;;19.55;13.27;;;9.50;99.90;;;;;;5053590;28;20064;-63
2021/05/02 06:02:40;;;;;;;20.52;12.43;;;9.60;99.90;;;;;;5063284;28;20525;-62
2021/05/02 06:05:06;;;;;;;17.60;11.07;;;10.30;99.90;;;;;;5050504;28;20100;-63
2021/05/02 06:07:32;;;;;;;16.65;10.25;;;11.50;99.90;;;;;;5063984;28;20032;-63
2021/05/02 06:09:58;;;;;;;12.75;10.82;;;13.10;99.60;;;;;;5047816;28;20017;-64
2021/05/02 06:12:24;;;;;;;13.80;10.02;;;13.50;97.50;;;;;;5055462;28;20101;-63
2021/05/02 06:14:49;;;;;;;16.10;9.60;;;12.90;97.10;;;;;;5056336;28;20017;-60
2021/05/02 06:17:16;;;;;;;15.32;9.68;;;11.80;98.30;;;;;;5061714;28;20448;-63
2021/05/02 06:19:41;;;;;;;11.68;8.30;;;10.70;99.90;;;;;;5056568;28;20263;-63
2021/05/02 06:22:07;;;;;;;13.05;9.50;;;9.90;99.90;;;;;;5055638;28;20116;-63
2021/05/02 06:24:33;;;;;;;15.88;10.52;;;9.40;99.90;;;;;;5050488;28;20090;-63
2021/05/02 06:26:59;;;;;;;16.10;11.02;;;9.00;99.90;;;;;;5061810;28;20029;-63
2021/05/02 06:29:25;;;;;;;17.30;10.23;;;8.60;99.90;;;;;;5058315;28;20044;-63
2021/05/02 06:31:51;;;;;;;17.35;11.45;;;8.30;99.90;;;;;;5058958;28;20497;-62
2021/05/02 06:34:16;;;;;;;17.02;11.75;;;7.90;99.90;;;;;;5052658;28;20025;-63
2021/05/02 06:36:42;;;;;;;17.27;9.45;;;7.80;99.90;;;;;;5051212;28;20432;-63
2021/05/02 06:39:09;;;;;;;17.63;9.30;;;7.70;99.90;;;;;;5057578;28;20028;-63
2021/05/02 06:41:44;;;;;;;13.73;8.80;;;7.70;99.90;;;;;;5049800;28;20128;-62
2021/05/02 06:44:10;;;;;;;15.73;8.70;;;7.60;99.90;;;;;;5055715;28;20025;-63
2021/05/02 06:46:37;;;;;;;15.95;7.97;;;7.60;99.90;;;;;;5051266;28;20044;-63
2021/05/02 06:49:05;;;;;;;21.15;9.40;;;7.50;99.90;;;;;;5052663;28;20104;-63
2021/05/02 06:51:31;;;;;;;14.82;10.45;;;7.40;99.90;;;;;;5050339;28;20036;-62
2021/05/02 06:53:57;;;;;;;16.33;10.35;;;7.10;99.90;;;;;;5056011;28;20128;-62
2021/05/02 06:56:26;;;;;;;16.05;9.68;;;7.00;99.90;;;;;;5058209;28;20036;-63
2021/05/02 06:58:53;;;;;;;15.23;9.25;;;7.00;99.90;;;;;;5056913;28;20035;-62
2021/05/02 07:01:19;;;;;;;18.83;10.90;;;6.90;99.90;;;;;;5057053;28;20036;-63
2021/05/02 07:03:45;;;;;;;17.83;9.65;;;7.00;99.90;;;;;;5036972;28;20053;-63
2021/05/02 07:06:11;;;;;;;14.55;9.68;;;7.00;99.90;;;;;;5045555;28;20032;-63
2021/05/02 07:08:36;;;;;;;17.80;9.75;;;7.00;99.90;;;;;;5054971;28;20032;-63
2021/05/02 07:11:03;;;;;;;18.33;9.73;;;7.10;99.90;;;;;;5061861;28;20035;-63
2021/05/02 07:13:30;;;;;;;19.13;9.93;;;7.10;99.90;;;;;;5050542;28;20044;-63
2021/05/02 07:15:59;;;;;;;14.43;9.07;;;7.00;99.90;;;;;;5045232;28;20029;-63
2021/05/02 07:18:27;;;;;;;16.35;9.52;;;7.10;99.90;;;;;;5062499;28;20137;-63
2021/05/02 07:20:53;;;;;;;16.50;9.30;;;7.10;99.90;;;;;;5057218;28;20489;-63
2021/05/02 07:23:19;;;;;;;12.05;7.55;;;7.10;99.90;;;;;;5058816;28;20104;-63
2021/05/02 07:25:44;;;;;;;12.07;8.30;;;7.20;99.90;;;;;;5048978;28;20062;-63
2021/05/02 07:28:10;;;;;;;10.50;7.30;;;7.20;99.90;;;;;;5044862;28;20033;-62
2021/05/02 07:30:36;;;;;;;25.02;8.35;;;7.10;99.90;;;;;;5054890;28;20036;-62
2021/05/02 07:33:01;;;;;;;14.77;7.60;;;7.20;99.90;;;;;;5050432;28;20032;-61
2021/05/02 07:35:27;;;;;;;13.07;7.47;;;7.30;99.90;;;;;;5050754;28;20126;-64
2021/05/02 07:37:53;;;;;;;10.40;6.80;;;7.60;99.90;;;;;;5052236;28;20033;-63
2021/05/02 07:40:19;;;;;;;10.20;5.75;;;7.80;99.90;;;;;;5056018;28;20093;-63
2021/05/02 07:42:44;;;;;;;8.88;5.20;;;8.10;99.90;;;;;;5058521;28;20029;-63
2021/05/02 07:45:10;;;;;;;14.13;6.43;;;8.40;99.90;;;;;;5059205;28;20486;-63
2021/05/02 07:47:36;;;;;;;10.63;5.80;;;8.60;99.90;;;;;;5052677;28;20442;-62
2021/05/02 07:50:03;;;;;;;10.60;6.03;;;8.80;99.90;;;;;;5049014;28;20534;-64
2021/05/02 07:52:29;;;;;;;8.93;4.72;;;9.00;99.90;;;;;;5044942;28;20032;-63
2021/05/02 07:54:54;;;;;;;8.38;5.40;;;9.30;99.90;;;;;;5053644;28;20147;-63
2021/05/02 07:57:20;;;;;;;11.95;4.80;;;9.70;99.90;;;;;;5059811;28;20025;-63
2021/05/02 07:59:45;;;;;;;10.95;5.15;;;9.90;99.90;;;;;;5052399;28;20437;-63
2021/05/02 08:02:11;;;;;;;12.70;4.85;;;9.80;99.90;;;;;;5031486;28;20059;-63
2021/05/02 08:04:38;;;;;;;8.23;4.03;;;9.50;99.90;;;;;;5050372;28;20402;-64
2021/05/02 08:07:05;;;;;;;9.13;4.22;;;9.90;99.90;;;;;;5044411;28;20055;-64
2021/05/02 08:09:31;;;;;;;7.57;3.67;;;9.70;99.90;;;;;;5054781;28;20052;-64
2021/05/02 08:11:56;;;;;;;13.40;4.13;;;9.60;99.90;;;;;;5049231;28;20060;-64
2021/05/02 08:14:22;;;;;;;12.80;4.30;;;9.60;99.90;;;;;;5061146;28;20120;-62
2021/05/02 08:16:47;;;;;;;10.30;4.22;;;9.40;99.90;;;;;;5053352;28;20028;-63
2021/05/02 08:19:13;;;;;;;8.90;3.97;;;9.60;99.90;;;;;;5062871;28;20024;-64
2021/05/02 08:21:38;;;;;;;11.18;4.00;;;9.80;99.90;;;;;;5053354;28;20402;-61
2021/05/02 08:24:05;;;;;;;6.93;3.25;;;10.50;99.90;;;;;;5049848;28;20108;-64
2021/05/02 08:26:30;;;;;;;9.88;3.35;;;11.00;98.70;;;;;;5053027;28;20039;-63
2021/05/02 08:28:56;;;;;;;7.32;3.22;;;11.30;98.20;;;;;;5049012;28;20025;-64
2021/05/02 08:31:21;;;;;;;5.85;2.70;;;12.10;96.80;;;;;;5048631;28;20033;-64
2021/05/02 08:33:47;;;;;;;6.57;2.70;;;11.70;95.60;;;;;;5036503;28;20033;-64
2021/05/02 08:36:12;;;;;;;11.18;3.10;;;11.90;94.60;;;;;;5043696;28;20037;-63
2021/05/02 08:38:38;;;;;;;7.95;2.80;;;11.80;94.90;;;;;;5046957;28;20490;-64
2021/05/02 08:41:06;;;;;;;6.55;2.13;;;10.90;95.60;;;;;;5046851;28;20033;-64
2021/05/02 08:43:32;;;;;;;11.98;3.15;;;10.70;96.30;;;;;;5057844;28;20025;-64
2021/05/02 08:45:58;;;;;;;10.25;2.45;;;10.80;96.30;;;;;;5057767;28;20055;-64
2021/05/02 08:48:25;;;;;;;5.68;2.55;;;11.80;95.30;;;;;;5056412;28;20032;-63
2021/05/02 08:50:55;;;;;;;6.40;2.45;;;13.00;92.30;;;;;;5045802;28;20021;-64
2021/05/02 08:53:21;;;;;;;8.15;2.45;;;14.10;91.50;;;;;;5040145;28;20162;-64
2021/05/02 08:55:47;;;;;;;5.57;2.70;;;15.10;88.10;;;;;;5051034;28;20103;-64
2021/05/02 08:58:17;;;;;;;7.30;2.55;;;14.50;83.10;;;;;;5050666;28;20087;-63
2021/05/02 09:00:43;;;;;;;6.20;2.22;;;13.70;83.30;;;;;;5048949;28;20032;-64
2021/05/02 09:03:09;;;;;;;6.68;2.53;;;13.00;85.80;;;;;;5025216;28;20072;-62
2021/05/02 09:05:43;;;;;;;6.82;2.42;;;12.50;88.80;;;;;;5045477;28;20067;-63
2021/05/02 09:08:11;;;;;;;11.30;2.30;;;12.50;90.20;;;;;;5043982;28;20074;-64
2021/05/02 09:10:36;;;;;;;5.38;2.22;;;12.50;89.40;;;;;;5043887;28;20021;-64
2021/05/02 09:13:04;;;;;;;7.45;2.47;;;12.30;89.80;;;;;;5052225;28;20505;-65
2021/05/02 09:15:31;;;;;;;4.90;2.25;;;12.10;88.00;;;;;;5058404;28;20025;-64
2021/05/02 09:18:02;;;;;;;8.80;2.63;;;11.70;89.10;;;;;;5046265;28;20371;-63
2021/05/02 09:20:51;;;;;;;6.65;3.10;;;11.40;90.00;;;;;;5047894;28;20483;-64
2021/05/02 09:23:18;;;;;;;6.22;3.00;;;11.20;90.70;;;;;;5071447;28;20506;-64
2021/05/02 09:25:54;;;;;;;6.45;2.67;;;10.80;91.70;;;;;;5044532;28;20025;-64
2021/05/02 09:28:55;;;;;;;7.68;2.15;;;10.50;93.30;;;;;;5048216;28;20082;-63
2021/05/02 09:31:32;;;;;;;7.75;2.90;;;10.10;93.10;;;;;;5056462;28;20032;-63
2021/05/02 09:34:16;;;;;;;22.38;3.97;;;10.00;94.00;;;;;;5056984;28;20088;-63
2021/05/02 09:36:55;;;;;;;6.82;2.08;;;9.70;94.00;;;;;;5055471;28;20494;-63
2021/05/02 09:39:48;;;;;;;6.65;2.25;;;9.80;93.70;;;;;;5041269;28;20021;-64
2021/05/02 09:42:23;;;;;;;5.38;2.25;;;9.80;93.50;;;;;;5048020;28;20035;-64
2021/05/02 09:44:52;;;;;;;7.60;2.55;;;10.70;92.50;;;;;;5053501;28;20103;-63
2021/05/02 09:47:41;;;;;;;5.47;2.10;;;11.40;91.30;;;;;;5042175;28;20025;-63
2021/05/02 09:50:08;;;;;;;3.95;2.30;;;12.00;90.20;;;;;;5052903;28;20033;-63
2021/05/02 09:52:52;;;;;;;7.38;2.63;;;12.20;88.30;;;;;;5044244;28;20018;-62
2021/05/02 09:55:19;;;;;;;4.07;1.77;;;12.50;84.30;;;;;;5042931;28;20028;-63
2021/05/02 09:58:20;;;;;;;8.35;2.42;;;11.60;85.80;;;;;;5045235;28;20297;-59
2021/05/02 10:00:49;;;;;;;4.82;2.15;;;11.20;88.50;;;;;;5042677;28;20025;-62
2021/05/02 10:03:15;;;;;;;10.27;2.38;;;10.90;89.90;;;;;;5027304;28;20165;-64
2021/05/02 10:05:56;;;;;;;7.38;2.50;;;10.90;91.00;;;;;;5045677;28;20195;-63
2021/05/02 10:08:25;;;;;;;8.05;2.63;;;10.80;91.70;;;;;;5048536;28;20048;-63
2021/05/02 10:10:52;;;;;;;7.13;3.17;;;11.00;91.50;;;;;;5042754;28;20022;-62
2021/05/02 10:13:19;;;;;;;8.30;2.40;;;11.80;92.20;;;;;;5044972;28;20810;-62
2021/05/02 10:15:45;;;;;;;4.25;2.47;;;12.50;88.70;;;;;;5040500;28;20048;-63
2021/05/02 10:18:11;;;;;;;8.02;2.90;;;12.80;89.50;;;;;;5051969;28;20060;-65
2021/05/02 10:20:37;;;;;;;5.05;2.55;;;12.90;85.90;;;;;;5038365;28;20017;-63
2021/05/02 10:23:03;;;;;;;3.75;2.58;;;13.10;81.60;;;;;;5040446;28;20025;-63
2021/05/02 10:25:29;;;;;;;7.75;2.28;;;12.80;80.40;;;;;;5043141;28;20025;-62
2021/05/02 10:27:55;;;;;;;6.65;2.17;;;12.80;81.80;;;;;;5038079;28;20479;-64
2021/05/02 10:30:21;;;;;;;7.55;2.40;;;12.50;80.90;;;;;;5043178;28;20029;-63
2021/05/02 10:32:51;;;;;;;7.43;2.50;;;12.40;80.00;;;;;;5046314;28;20025;-63
2021/05/02 10:35:17;;;;;;;6.13;2.42;;;12.10;81.90;;;;;;5038680;28;20032;-62
2021/05/02 10:37:55;;;;;;;5.75;2.22;;;12.30;81.40;;;;;;5041848;28;20025;-62
2021/05/02 10:40:21;;;;;;;4.78;2.80;;;12.10;80.10;;;;;;5038910;28;20033;-63
2021/05/02 10:42:55;;;;;;;5.53;2.53;;;12.10;79.60;;;;;;5040209;28;20403;-62
2021/05/02 10:45:46;;;;;;;8.25;2.63;;;12.30;79.20;;;;;;5042964;28;20056;-63
2021/05/02 10:48:14;;;;;;;7.93;3.00;;;12.90;82.30;;;;;;5043197;28;20112;-62
2021/05/02 10:50:54;;;;;;;6.90;2.50;;;12.80;81.00;;;;;;5042906;28;20099;-61
2021/05/02 10:53:25;;;;;;;3.90;2.50;;;12.70;80.40;;;;;;5037916;28;20028;-62
2021/05/02 10:56:02;;;;;;;6.40;2.30;;;12.50;80.30;;;;;;5035886;28;20055;-63
2021/05/02 10:58:33;;;;;;;7.55;2.65;;;12.20;80.10;;;;;;5037405;28;20063;-62
2021/05/02 11:01:03;;;;;;;5.75;2.55;;;11.60;81.10;;;;;;5041381;28;20049;-61
2021/05/02 11:03:41;;;;;;;6.05;2.40;;;11.00;82.80;;;;;;5020169;28;20053;-63
2021/05/02 11:06:15;;;;;;;4.97;2.53;;;10.60;84.30;;;;;;5038063;28;20026;-62
2021/05/02 11:08:56;;;;;;;6.80;2.10;;;10.70;84.00;;;;;;5040257;28;20060;-63
2021/05/02 11:11:35;;;;;;;6.95;2.78;;;10.50;85.10;;;;;;5041132;28;20040;-63
2021/05/02 11:14:10;;;;;;;5.93;2.70;;;10.80;85.50;;;;;;5042786;28;20021;-63
2021/05/02 11:16:36;;;;;;;4.28;2.55;;;11.20;84.00;;;;;;5041524;28;20021;-60
2021/05/02 11:19:04;;;;;;;6.70;2.80;;;12.00;82.20;;;;;;5036792;28;20029;-62
2021/05/02 11:21:47;;;;;;;9.65;2.60;;;12.50;81.20;;;;;;5038961;28;20036;-63
2021/05/02 11:24:19;;;;;;;9.98;1.88;;;12.40;78.30;;;;;;5033298;28;20052;-63
2021/05/02 11:27:02;;;;;;;3.25;1.95;;;12.30;77.30;;;;;;5037096;28;20029;-63
2021/05/02 11:32:06;;;;;;;8.90;4.13;;;11.70;77.10;;;;;;5043747;28;20036;-63
2021/05/02 11:34:51;;;;;;;5.32;2.40;;;11.60;77.40;;;;;;5043037;28;20021;-63
2021/05/02 11:37:49;;;;;;;3.70;1.70;;;11.70;78.00;;;;;;5042471;28;20506;-63
2021/05/02 11:40:33;;;;;;;5.88;2.13;;;12.10;75.60;;;;;;5042688;28;20060;-62
2021/05/02 11:43:09;;;;;;;;;;;12.30;75.00;;;;;;5042497;28;20585;-62
2021/05/02 11:45:56;;;;;;;5.97;2.25;;;12.60;73.80;;;;;;5041264;28;20551;-63
2021/05/02 11:48:24;;;;;;;4.82;2.10;;;12.70;71.60;;;;;;5039638;28;20025;-63
2021/05/02 11:50:55;;;;;;;4.72;2.03;;;12.50;71.30;;;;;;5047472;28;20040;-63
2021/05/02 11:53:39;;;;;;;4.35;1.95;;;12.60;69.70;;;;;;5046031;28;20021;-64
2021/05/02 11:56:17;;;;;;;6.18;3.17;;;12.20;71.90;;;;;;5042723;28;20024;-64
2021/05/02 11:58:43;;;;;;;6.00;2.83;;;12.30;73.60;;;;;;5046882;28;20029;-63
2021/05/02 12:01:17;;;;;;;5.22;1.90;;;12.10;73.60;;;;;;5055185;28;20093;-63
2021/05/02 12:03:45;;;;;;;4.97;2.17;;;11.60;74.20;;;;;;5036876;28;20132;-64
2021/05/02 12:06:20;;;;;;;7.22;3.35;;;11.40;75.70;;;;;;5042484;28;20040;-64
2021/05/02 12:08:46;;;;;;;3.13;1.60;;;11.60;76.30;;;;;;5043393;28;20033;-63
2021/05/02 12:11:13;;;;;;;7.15;2.40;;;11.80;75.30;;;;;;5036332;28;20047;-63
2021/05/02 12:13:43;;;;;;;7.88;2.60;;;12.10;76.30;;;;;;5038704;28;20112;-63
2021/05/02 12:16:13;;;;;;;8.10;2.67;;;12.10;75.30;;;;;;5043600;28;20107;-64
2021/05/02 12:19:00;;;;;;;6.10;2.28;;;12.20;74.40;;;;;;5044247;28;20399;-63
2021/05/02 12:21:41;;;;;;;5.57;2.40;;;12.50;73.60;;;;;;5055321;28;20029;-64
2021/05/02 12:24:26;;;;;;;4.90;2.22;;;12.70;72.10;;;;;;5048396;28;20047;-64
2021/05/02 12:26:53;;;;;;;4.07;1.80;;;12.90;70.40;;;;;;5045396;28;20025;-64
2021/05/02 12:29:25;;;;;;;7.88;1.85;;;12.80;70.90;;;;;;5041320;28;20462;-64
2021/05/02 12:31:56;;;;;;;4.07;1.70;;;12.90;71.20;;;;;;5038367;28;20044;-63
2021/05/02 12:34:25;;;;;;;4.25;2.30;;;12.50;71.00;;;;;;5044391;28;20163;-64
2021/05/02 12:36:55;;;;;;;6.10;2.00;;;12.30;72.40;;;;;;5041782;28;20107;-64
2021/05/02 12:39:29;;;;;;;6.32;2.33;;;12.10;73.10;;;;;;5052081;28;20029;-64
2021/05/02 12:41:55;;;;;;;5.70;2.00;;;12.00;73.00;;;;;;5048231;28;20033;-59
2021/05/02 12:44:23;;;;;;;10.23;2.22;;;11.90;73.80;;;;;;5044298;28;20028;-64
2021/05/02 12:46:51;;;;;;;11.02;2.00;;;11.40;73.70;;;;;;5054798;28;20028;-64
2021/05/02 12:49:18;;;;;;;4.15;1.85;;;11.20;75.80;;;;;;5042757;28;20024;-64
2021/05/02 12:51:46;;;;;;;4.22;2.17;;;11.50;75.20;;;;;;5037834;28;20022;-64
2021/05/02 12:54:14;;;;;;;4.85;2.28;;;11.50;74.30;;;;;;5045498;28;20106;-64
2021/05/02 12:56:43;;;;;;;4.60;2.28;;;11.70;76.10;;;;;;5059967;28;20025;-64